Grand Rapids, North Dakota
Current Conditions -  °F | °C
As of 1:35 AM on Thursday 23 Oct 2014 (Local Time) from KGWR Reporting Station
Clear Clear  
Wind Chill: 43°   Ceiling: Unl
Heat Index: 48°   Visibility: 10mi
Dew Point: 48°   Wind: 12mph
Humidity: 100%   Direction: 230°SW
Pressure: 29.93"   Gusts: NA
Location:  46.37°N, 98.2854°W
Report Text: KGWR 230635Z AUTO 23010KT 10SM CLR 09/09 A2993 RMK A01 P000
Loading
Personal Weather Stations






























Interactive Weather Map
Tropical Storm Tracking
New forecast layout! Learn more

10-Day Weather Forecast

Advertisements
Track Severe Weather on mobile